Time;durP1;ratioP1;P1;durP2;ratioP2;P2;SDS_P1;SDS_P2;PMS_P1;PMS_P2;Temp;Humidity;BMP_temperature;BMP_pressure;BME280_temperature;BME280_humidity;BME280_pressure;Samples;Min_cycle;Max_cycle;Signal;HPM_P1;HPM_P2
2022/04/29 00:02:32;;;;;;;6.53;2.92;;;;;;;6.42;100.00;102837.53;6288857;28;20049;-71
2022/04/29 00:05:36;;;;;;;3.13;1.92;;;;;;;6.40;100.00;102838.41;6297140;28;20059;-71
2022/04/29 00:08:37;;;;;;;11.05;1.88;;;;;;;6.44;100.00;102840.13;6296869;28;20520;-70
2022/04/29 00:11:38;;;;;;;4.63;1.88;;;;;;;6.45;100.00;102834.03;6296106;28;20055;-71
2022/04/29 00:14:40;;;;;;;4.95;1.63;;;;;;;6.45;100.00;102845.38;6296859;28;20059;-71
2022/04/29 00:17:42;;;;;;;10.75;1.67;;;;;;;6.45;100.00;102844.47;6296654;28;20048;-71
2022/04/29 00:20:45;;;;;;;2.28;1.25;;;;;;;6.42;100.00;102844.50;6296211;28;20049;-71
2022/04/29 00:23:46;;;;;;;1.67;1.50;;;;;;;6.39;100.00;102829.69;6296467;28;20044;-71
2022/04/29 00:26:48;;;;;;;2.95;1.63;;;;;;;6.37;100.00;102831.47;6296762;28;20052;-70
2022/04/29 00:29:50;;;;;;;3.00;1.73;;;;;;;6.33;100.00;102825.38;6296161;28;20083;-70
2022/04/29 00:32:51;;;;;;;2.38;1.98;;;;;;;6.35;100.00;102823.59;6293642;28;20040;-71
2022/04/29 00:35:54;;;;;;;6.72;1.63;;;;;;;6.35;100.00;102830.56;6296259;28;20051;-71
2022/04/29 00:38:55;;;;;;;6.72;1.77;;;;;;;6.36;100.00;102824.50;6296682;28;20051;-71
2022/04/29 00:41:56;;;;;;;4.40;1.75;;;;;;;6.33;100.00;102816.66;6295570;28;20056;-71
2022/04/29 00:44:57;;;;;;;9.02;2.65;;;;;;;6.33;100.00;102814.06;6296579;28;20488;-71
2022/04/29 00:47:59;;;;;;;5.45;2.10;;;;;;;6.31;100.00;102815.78;6296326;28;20045;-71
2022/04/29 00:51:02;;;;;;;5.38;2.15;;;;;;;6.29;100.00;102817.53;6295353;28;20059;-71
2022/04/29 00:54:07;;;;;;;4.85;2.58;;;;;;;6.33;100.00;102814.06;6296243;28;20055;-71
2022/04/29 00:57:21;;;;;;;4.18;1.88;;;;;;;6.32;100.00;102810.59;6295955;28;20115;-70
2022/04/29 01:00:23;;;;;;;8.13;2.92;;;;;;;6.37;100.00;102807.09;6295534;28;20596;-70
2022/04/29 01:03:28;;;;;;;9.05;2.90;;;;;;;6.40;100.00;102794.88;6295940;28;20086;-71
2022/04/29 01:06:31;;;;;;;6.25;2.50;;;;;;;6.32;100.00;102802.75;6296188;28;20490;-71
2022/04/29 01:09:33;;;;;;;6.57;2.38;;;;;;;6.29;100.00;102807.09;6295904;28;20044;-70
2022/04/29 01:12:36;;;;;;;6.60;2.50;;;;;;;6.33;100.00;102806.22;6295408;28;20052;-71
2022/04/29 01:15:38;;;;;;;4.18;2.30;;;;;;;6.31;100.00;102814.06;6296249;28;20419;-71
2022/04/29 01:18:41;;;;;;;5.00;2.53;;;;;;;6.32;100.00;102814.94;6296269;28;20045;-71
2022/04/29 01:21:44;;;;;;;7.68;2.17;;;;;;;6.27;100.00;102809.72;6295121;28;20488;-71
2022/04/29 01:24:49;;;;;;;6.80;1.95;;;;;;;6.22;100.00;102802.75;6296113;28;20044;-71
2022/04/29 01:27:51;;;;;;;6.50;2.45;;;;;;;6.22;100.00;102795.81;6295842;28;20052;-70
2022/04/29 01:30:53;;;;;;;9.13;2.38;;;;;;;6.21;100.00;102794.06;6295297;28;20048;-71
2022/04/29 01:33:56;;;;;;;3.67;1.95;;;;;;;6.28;100.00;102794.94;6295922;28;20487;-71
2022/04/29 01:36:57;;;;;;;3.15;1.92;;;;;;;6.35;100.00;102796.63;6295536;28;20446;-71
2022/04/29 01:40:00;;;;;;;5.15;2.40;;;;;;;6.42;100.00;102790.53;6295794;28;20044;-71
2022/04/29 01:43:02;;;;;;;2.38;1.70;;;;;;;6.46;100.00;102783.56;6295124;28;20056;-70
2022/04/29 01:46:03;;;;;;;6.72;2.53;;;;;;;6.42;100.00;102780.09;6295729;28;20064;-71
2022/04/29 01:49:05;;;;;;;5.53;2.00;;;;;;;6.42;100.00;102779.22;6295590;28;20048;-70
2022/04/29 01:52:08;;;;;;;3.00;1.92;;;;;;;6.31;100.00;102790.56;6290752;28;20049;-70
2022/04/29 01:55:11;;;;;;;15.88;3.38;;;;;;;6.28;100.00;102787.97;6295271;28;20054;-71
2022/04/29 01:58:12;;;;;;;3.63;1.83;;;;;;;6.31;100.00;102787.06;6295558;28;20045;-70
2022/04/29 02:01:14;;;;;;;2.55;1.98;;;;;;;6.26;100.00;102791.44;6297678;28;20056;-70
2022/04/29 02:04:16;;;;;;;4.03;2.22;;;;;;;6.25;100.00;102787.97;6300004;28;20056;-71
2022/04/29 02:07:17;;;;;;;5.60;2.47;;;;;;;6.24;100.00;102786.22;6299721;28;20037;-71
2022/04/29 02:10:21;;;;;;;8.65;2.42;;;;;;;6.25;100.00;102779.25;6298916;28;20056;-70
2022/04/29 02:13:22;;;;;;;3.70;2.40;;;;;;;6.24;100.00;102790.59;6299744;28;20041;-71
2022/04/29 02:16:23;;;;;;;7.80;1.90;;;;;;;6.09;100.00;102779.31;6299467;28;20408;-70
2022/04/29 02:19:27;;;;;;;6.68;2.05;;;;;;;6.03;100.00;102788.88;6299480;28;20052;-71
2022/04/29 02:22:28;;;;;;;5.07;2.58;;;;;;;6.05;100.00;102780.19;6298616;28;20048;-71
2022/04/29 02:25:31;;;;;;;6.68;2.15;;;;;;;6.08;100.00;102777.53;6299667;28;20049;-70
2022/04/29 02:28:33;;;;;;;8.48;2.55;;;;;;;6.16;100.00;102779.28;6298930;28;20060;-71
2022/04/29 02:31:34;;;;;;;6.07;2.40;;;;;;;6.18;100.00;102782.78;6298534;28;20056;-71
2022/04/29 02:34:37;;;;;;;4.72;1.77;;;;;;;6.16;100.00;102771.44;6299099;28;20056;-70
2022/04/29 02:37:39;;;;;;;4.80;2.13;;;;;;;6.11;100.00;102766.25;6299136;28;20045;-70
2022/04/29 02:40:42;;;;;;;5.05;2.53;;;;;;;6.08;100.00;102761.03;6298414;28;20052;-70
2022/04/29 02:43:44;;;;;;;4.05;1.77;;;;;;;6.09;100.00;102770.63;6298860;28;20079;-70
2022/04/29 02:50:01;;;;;;;3.10;2.30;;;;;;;5.98;100.00;102764.53;6298205;28;20067;-70
2022/04/29 02:53:02;;;;;;;6.78;2.10;;;;;;;5.95;100.00;102748.88;6298265;28;20049;-71
2022/04/29 02:56:05;;;;;;;2.22;1.52;;;;;;;5.95;100.00;102743.66;6298611;28;20515;-71
2022/04/29 02:59:07;;;;;;;6.20;1.85;;;;;;;5.88;100.00;102737.56;6298673;28;20060;-70
2022/04/29 03:02:08;;;;;;;4.45;2.10;;;;;;;5.76;100.00;102729.72;6297836;28;20053;-71
2022/04/29 03:05:09;;;;;;;8.15;2.00;;;;;;;5.64;100.00;102728.03;6298591;28;20048;-71
2022/04/29 03:08:11;;;;;;;3.42;2.30;;;;;;;5.57;100.00;102732.38;6298339;28;20063;-70
2022/04/29 03:11:13;;;;;;;6.25;2.17;;;;;;;5.52;100.00;102730.63;6297648;28;20416;-70
2022/04/29 03:14:15;;;;;;;11.20;2.55;;;;;;;5.48;100.00;102734.09;6298186;28;20063;-71
2022/04/29 03:20:35;;;;;;;4.35;2.42;;;;;;;5.58;100.00;102734.09;6297067;28;20096;-70
2022/04/29 03:23:37;;;;;;;15.32;2.75;;;;;;;5.62;100.00;102731.50;6298236;28;20128;-71
2022/04/29 03:26:41;;;;;;;7.35;1.98;;;;;;;5.64;100.00;102730.63;6297969;28;20101;-71
2022/04/29 03:29:42;;;;;;;5.93;3.35;;;;;;;5.65;100.00;102732.38;6297898;28;20510;-71
2022/04/29 03:32:50;;;;;;;7.35;2.25;;;;;;;5.56;100.00;102732.38;6297329;28;20044;-71
2022/04/29 03:35:52;;;;;;;9.07;2.88;;;;;;;5.53;100.00;102724.53;6297662;28;20408;-70
2022/04/29 03:38:54;;;;;;;4.43;2.42;;;;;;;5.46;100.00;102715.88;6297711;28;20545;-70
2022/04/29 03:41:57;;;;;;;5.28;2.30;;;;;;;5.51;100.00;102713.25;6296597;28;20110;-70
2022/04/29 03:44:58;;;;;;;6.45;2.95;;;;;;;5.55;100.00;102707.19;6297683;28;20048;-70
2022/04/29 03:48:00;;;;;;;5.57;3.25;;;;;;;5.57;100.00;102711.50;6297218;28;20041;-70
2022/04/29 03:51:01;;;;;;;5.55;2.35;;;;;;;5.59;100.00;102707.16;6293406;28;20049;-70
2022/04/29 03:54:02;;;;;;;9.40;2.83;;;;;;;5.56;100.00;102709.78;6294401;28;20041;-71
2022/04/29 03:57:06;;;;;;;5.30;2.53;;;;;;;5.53;100.00;102714.97;6297114;28;20044;-70
2022/04/29 04:00:09;;;;;;;4.50;2.83;;;;;;;5.51;100.00;102710.66;6296746;28;20067;-70
2022/04/29 04:03:10;;;;;;;5.25;2.42;;;;;;;5.47;100.00;102712.38;6296495;28;20067;-71
2022/04/29 04:09:33;;;;;;;9.52;3.25;;;;;;;5.43;100.00;102707.16;6278866;28;20079;-70
2022/04/29 04:12:40;;;;;;;9.43;2.67;;;;;;;5.46;100.00;102708.03;6295115;28;20446;-70
2022/04/29 04:15:42;;;;;;;8.93;3.17;;;;;;;5.45;100.00;102706.31;6293072;28;20041;-70
2022/04/29 04:18:43;;;;;;;4.18;2.47;;;;;;;5.45;100.00;102705.41;6296700;28;20055;-71
2022/04/29 04:21:45;;;;;;;14.77;4.28;;;;;;;5.44;100.00;102706.28;6296056;28;20814;-70
2022/04/29 04:24:47;;;;;;;8.73;2.58;;;;;;;5.38;100.00;102708.91;6296277;28;20504;-70
2022/04/29 04:27:49;;;;;;;6.55;3.30;;;;;;;5.33;100.00;102708.91;6296414;28;20048;-70
2022/04/29 04:30:51;;;;;;;4.60;2.47;;;;;;;5.37;100.00;102717.63;6295590;28;20060;-71
2022/04/29 04:33:53;;;;;;;5.28;2.95;;;;;;;5.33;100.00;102728.03;6296373;28;20135;-71
2022/04/29 04:36:54;;;;;;;7.97;2.75;;;;;;;5.34;100.00;102724.53;6296413;28;20064;-70
2022/04/29 04:39:58;;;;;;;7.15;3.05;;;;;;;5.39;100.00;102727.16;6296036;28;20052;-71
2022/04/29 04:43:00;;;;;;;4.32;2.45;;;;;;;5.42;100.00;102728.91;6295982;28;20121;-71
2022/04/29 04:46:03;;;;;;;8.82;2.53;;;;;;;5.39;100.00;102727.16;6296150;28;20045;-71
2022/04/29 04:49:04;;;;;;;6.93;3.05;;;;;;;5.35;100.00;102728.88;6296431;28;20048;-71
2022/04/29 04:52:06;;;;;;;7.63;2.75;;;;;;;5.44;100.00;102730.63;6295261;28;20048;-70
2022/04/29 04:55:09;;;;;;;6.95;3.50;;;;;;;5.54;100.00;102732.38;6296196;28;20052;-71
2022/04/29 04:58:12;;;;;;;5.50;3.17;;;;;;;5.53;100.00;102729.75;6295976;28;20052;-71
2022/04/29 05:01:14;;;;;;;9.63;3.25;;;;;;;5.54;100.00;102729.78;6295332;28;20447;-70
2022/04/29 05:04:15;;;;;;;8.32;2.92;;;;;;;5.60;100.00;102732.38;6296172;28;20079;-71
2022/04/29 05:07:17;;;;;;;5.72;3.05;;;;;;;5.64;100.00;102733.25;6295917;28;20049;-70
2022/04/29 05:10:18;;;;;;;6.82;3.03;;;;;;;5.64;100.00;102740.19;6295496;28;20048;-70
2022/04/29 05:13:21;;;;;;;10.82;3.90;;;;;;;5.54;100.00;102737.59;6295759;28;20411;-71
2022/04/29 05:16:22;;;;;;;7.70;3.40;;;;;;;5.49;100.00;102743.66;6296064;28;20055;-71
2022/04/29 05:19:23;;;;;;;5.22;2.75;;;;;;;5.41;100.00;102748.91;6295883;28;20511;-70
2022/04/29 05:22:25;;;;;;;11.88;3.33;;;;;;;5.51;100.00;102747.16;6295347;28;20078;-70
2022/04/29 05:25:26;;;;;;;7.43;3.22;;;;;;;5.51;100.00;102741.94;6295752;28;20680;-71
2022/04/29 05:28:29;;;;;;;6.68;2.88;;;;;;;5.53;100.00;102740.19;6295933;28;20040;-70
2022/04/29 05:31:32;;;;;;;6.18;3.33;;;;;;;5.45;100.00;102740.22;6295040;28;20044;-70
2022/04/29 05:34:33;;;;;;;5.13;2.63;;;;;;;5.52;100.00;102739.31;6296180;28;20411;-71
2022/04/29 05:37:35;;;;;;;9.27;3.05;;;;;;;5.56;100.00;102738.44;6300577;28;20049;-71
2022/04/29 05:43:57;;;;;;;8.45;3.33;;;;;;;5.52;100.00;102741.06;6300356;28;20131;-70
2022/04/29 05:46:59;;;;;;;7.18;3.10;;;;;;;5.51;100.00;102744.56;6300036;28;20045;-71
2022/04/29 05:50:00;;;;;;;11.65;4.30;;;;;;;5.56;100.00;102746.28;6299967;28;20060;-70
2022/04/29 05:53:01;;;;;;;8.05;4.03;;;;;;;5.56;100.00;102750.63;6292832;28;20052;-70
2022/04/29 05:56:03;;;;;;;6.45;3.17;;;;;;;5.59;100.00;102745.44;6297439;28;20495;-71
2022/04/29 05:59:06;;;;;;;5.88;3.53;;;;;;;5.59;100.00;102740.22;6299863;28;20045;-71
2022/04/29 06:02:08;;;;;;;11.07;3.55;;;;;;;5.71;100.00;102739.31;6291050;28;20045;-71
2022/04/29 06:05:10;;;;;;;7.60;3.38;;;;;;;5.78;100.00;102741.06;6299638;28;20049;-71
2022/04/29 06:08:12;;;;;;;9.50;4.45;;;;;;;5.79;100.00;102735.81;6299868;28;20060;-71
2022/04/29 06:11:14;;;;;;;6.10;3.33;;;;;;;5.81;100.00;102730.59;6294409;28;20141;-71
2022/04/29 06:14:17;;;;;;;12.18;3.70;;;;;;;5.84;100.00;102734.06;6298908;28;20045;-71
2022/04/29 06:17:21;;;;;;;11.32;3.65;;;;;;;6.01;100.00;102734.09;6299478;28;20527;-71
2022/04/29 06:20:22;;;;;;;7.18;3.60;;;;;;;6.05;100.00;102732.34;6298640;28;20048;-70
2022/04/29 06:23:23;;;;;;;9.30;4.07;;;;;;;6.08;100.00;102724.47;6299323;28;20059;-70
2022/04/29 06:26:25;;;;;;;5.25;3.17;;;;;;;6.21;100.00;102726.19;6290961;28;20044;-71
2022/04/29 06:29:28;;;;;;;11.60;4.30;;;;;;;6.33;100.00;102720.06;6299068;28;20041;-70
2022/04/29 06:32:29;;;;;;;9.02;3.95;;;;;;;6.35;100.00;102727.00;6298440;28;20052;-71
2022/04/29 06:35:30;;;;;;;12.63;4.53;;;;;;;6.27;100.00;102726.19;6299268;28;20048;-71
2022/04/29 06:38:32;;;;;;;9.60;3.13;;;;;;;6.34;100.00;102725.25;6299218;28;20041;-71
2022/04/29 06:41:35;;;;;;;8.30;4.07;;;;;;;6.46;100.00;102734.81;6298270;28;20053;-70
2022/04/29 06:44:39;;;;;;;6.63;3.45;;;;;;;6.49;100.00;102737.38;6298812;28;20045;-70
2022/04/29 06:47:40;;;;;;;7.05;3.92;;;;;;;6.58;100.00;102737.34;6298771;28;20055;-70
2022/04/29 06:50:42;;;;;;;10.68;4.90;;;;;;;6.68;100.00;102742.56;6298102;28;20049;-71
2022/04/29 06:53:43;;;;;;;8.52;4.20;;;;;;;6.77;100.00;102745.13;6298537;28;20055;-70
2022/04/29 06:56:45;;;;;;;9.20;3.60;;;;;;;6.89;100.00;102742.41;6288475;28;20045;-70
2022/04/29 06:59:49;;;;;;;12.70;4.60;;;;;;;6.84;100.00;102747.66;6288350;28;20492;-70
2022/04/29 07:02:51;;;;;;;9.55;3.97;;;;;;;6.92;100.00;102747.63;6293547;28;20417;-70
2022/04/29 07:05:54;;;;;;;8.80;3.63;;;;;;;7.01;100.00;102742.34;6294686;28;20110;-70
2022/04/29 07:08:55;;;;;;;8.73;3.67;;;;;;;7.07;100.00;102738.81;6286058;28;20056;-72
2022/04/29 07:11:57;;;;;;;6.53;3.15;;;;;;;7.04;100.00;102737.09;6289926;28;20041;-70
2022/04/29 07:15:00;;;;;;;7.65;3.53;;;;;;;7.03;100.00;102735.34;6298250;28;20049;-71
2022/04/29 07:18:01;;;;;;;14.20;4.38;;;;;;;7.17;100.00;102726.53;6282163;28;20052;-71
2022/04/29 07:21:03;;;;;;;8.48;3.33;;;;;;;7.30;100.00;102729.06;6278164;28;20051;-70
2022/04/29 07:24:05;;;;;;;6.93;3.55;;;;;;;7.40;100.00;102727.22;6297850;28;20049;-70
2022/04/29 07:27:06;;;;;;;10.52;4.20;;;;;;;7.42;100.00;102730.72;6297799;28;20052;-70
2022/04/29 07:30:10;;;;;;;8.05;4.15;;;;;;;7.52;100.00;102734.13;6297708;28;20052;-70
2022/04/29 07:33:11;;;;;;;8.82;4.82;;;;;;;7.64;100.00;102726.16;6297075;28;20048;-70
2022/04/29 07:42:51;;;;;;;9.93;3.60;;;;;;;7.74;100.00;102722.56;6296341;28;20520;-71
2022/04/29 07:45:53;;;;;;;9.15;4.43;;;;;;;7.85;100.00;102718.06;6297774;28;20056;-70
2022/04/29 07:48:55;;;;;;;7.63;3.97;;;;;;;7.95;100.00;102724.13;6296518;28;20051;-71
2022/04/29 07:51:56;;;;;;;7.80;3.70;;;;;;;8.00;100.00;102722.31;6296546;28;20048;-71
2022/04/29 07:54:58;;;;;;;5.35;2.78;;;;;;;8.11;100.00;102719.56;6297326;28;20052;-71
2022/04/29 07:58:00;;;;;;;7.20;3.60;;;;;;;8.23;100.00;102718.56;6296140;28;20044;-71
2022/04/29 08:01:04;;;;;;;8.55;3.40;;;;;;;8.29;100.00;102715.88;6294848;28;20507;-70
2022/04/29 08:04:06;;;;;;;7.13;3.17;;;;;;;8.24;100.00;102715.06;6295182;28;20040;-70
2022/04/29 08:07:07;;;;;;;7.28;3.85;;;;;;;8.28;100.00;102720.25;6296299;28;20416;-71
2022/04/29 08:10:09;;;;;;;5.00;2.70;;;;;;;8.37;100.00;102711.44;6296398;28;20049;-70
2022/04/29 08:13:11;;;;;;;5.55;2.47;;;;;;;8.60;100.00;102701.50;6296331;28;20105;-71
2022/04/29 08:16:15;;;;;;;5.15;3.00;;;;;;;8.75;100.00;102703.03;6295968;28;20098;-71
2022/04/29 08:19:16;;;;;;;4.05;2.75;;;;;;;8.97;100.00;102708.84;6296635;28;20134;-71
2022/04/29 08:22:19;;;;;;;12.15;3.45;;;;;;;9.06;100.00;102708.72;6295639;28;20047;-71
2022/04/29 08:25:20;;;;;;;9.05;3.00;;;;;;;9.17;100.00;102707.66;6296811;28;20059;-71
2022/04/29 08:28:23;;;;;;;4.85;2.58;;;;;;;9.24;100.00;102718.03;6296129;28;20423;-71
2022/04/29 08:31:25;;;;;;;4.18;2.20;;;;;;;9.36;100.00;102712.59;6295657;28;20518;-70
2022/04/29 08:34:27;;;;;;;6.38;2.03;;;;;;;9.60;100.00;102713.94;6296426;28;20522;-70
2022/04/29 08:37:28;;;;;;;6.50;2.78;;;;;;;9.79;100.00;102698.72;6295870;28;20051;-71
2022/04/29 08:40:30;;;;;;;4.90;2.42;;;;;;;10.05;100.00;102695.59;6295501;28;20716;-71
2022/04/29 08:43:33;;;;;;;3.42;2.13;;;;;;;10.29;100.00;102698.66;6296115;28;20049;-71
2022/04/29 08:46:36;;;;;;;4.88;2.58;;;;;;;10.58;100.00;102698.91;6296548;28;20052;-70
2022/04/29 08:49:38;;;;;;;4.28;2.15;;;;;;;10.62;100.00;102702.31;6295917;28;20059;-71
2022/04/29 08:52:39;;;;;;;3.58;2.28;;;;;;;10.75;99.84;102690.63;6295938;28;20045;-71
2022/04/29 08:59:12;;;;;;;8.85;2.75;;;;;;;10.56;94.85;102697.19;6243562;28;20467;-71
2022/04/29 09:02:14;;;;;;;5.70;2.88;;;;;;;10.58;94.46;102706.78;6295381;28;20048;-71
2022/04/29 09:05:16;;;;;;;3.10;2.10;;;;;;;10.37;99.23;102688.84;6295990;28;20507;-71
2022/04/29 09:08:19;;;;;;;4.72;2.28;;;;;;;10.31;94.36;102700.34;6296013;28;20048;-71
2022/04/29 09:11:25;;;;;;;6.30;2.65;;;;;;;10.38;94.59;102695.81;6288252;28;20049;-71
2022/04/29 09:14:26;;;;;;;4.80;2.28;;;;;;;10.59;95.70;102692.75;6296127;28;20055;-71
2022/04/29 09:17:29;;;;;;;8.52;2.20;;;;;;;10.58;97.04;102698.91;6296524;28;20415;-71
2022/04/29 09:20:31;;;;;;;8.23;2.58;;;;;;;10.54;99.79;102699.88;6299634;28;20047;-71
2022/04/29 09:23:32;;;;;;;7.15;2.47;;;;;;;10.66;100.00;102699.56;6300471;28;20045;-71
2022/04/29 09:26:35;;;;;;;7.68;2.08;;;;;;;10.68;100.00;102690.81;6300378;28;20059;-71
2022/04/29 09:29:41;;;;;;;7.40;2.53;;;;;;;10.70;100.00;102687.22;6300435;28;20496;-71
2022/04/29 09:32:52;;;;;;;5.88;2.55;;;;;;;10.67;100.00;102692.53;6299818;28;20125;-71
2022/04/29 09:35:55;;;;;;;8.57;2.40;;;;;;;10.47;100.00;102694.75;6300476;28;20044;-70
2022/04/29 09:42:22;;;;;;;7.43;2.70;;;;;;;10.59;100.00;102682.22;6291514;28;20458;-71
2022/04/29 09:45:24;;;;;;;8.80;2.75;;;;;;;10.76;100.00;102679.19;6300422;28;20056;-71
2022/04/29 09:48:27;;;;;;;6.32;2.97;;;;;;;10.92;100.00;102684.97;6299962;28;20052;-71
2022/04/29 09:51:49;;;;;;;6.40;2.38;;;;;;;10.95;99.59;102678.78;6299625;28;20052;-71
2022/04/29 09:54:51;;;;;;;4.30;2.15;;;;;;;10.86;97.61;102678.09;6282906;28;20052;-71
2022/04/29 09:57:56;;;;;;;4.65;2.35;;;;;;;10.73;97.56;102681.91;6275215;28;20045;-71
2022/04/29 10:00:58;;;;;;;4.10;2.40;;;;;;;10.50;99.53;102676.31;6298451;28;20515;-71
2022/04/29 10:04:01;;;;;;;5.63;2.42;;;;;;;10.77;100.00;102674.81;6300004;28;20045;-71
2022/04/29 10:07:04;;;;;;;4.15;2.45;;;;;;;11.11;100.00;102673.09;6297154;28;20041;-70
2022/04/29 10:10:06;;;;;;;4.85;2.85;;;;;;;11.35;97.58;102671.59;6299317;28;20385;-70
2022/04/29 10:13:09;;;;;;;7.30;2.28;;;;;;;11.39;95.21;102668.00;6298953;28;20053;-71
2022/04/29 10:16:12;;;;;;;5.60;2.63;;;;;;;11.42;94.92;102667.91;6299397;28;20399;-71
2022/04/29 10:22:38;;;;;;;5.72;3.10;;;;;;;11.45;93.77;102651.19;6297878;28;20049;-71
2022/04/29 10:25:42;;;;;;;6.75;2.45;;;;;;;11.55;93.20;102644.78;6299241;28;20397;-70
2022/04/29 10:28:44;;;;;;;5.28;2.20;;;;;;;11.85;93.47;102652.75;6299523;28;20064;-68
2022/04/29 10:32:07;;;;;;;6.32;2.10;;;;;;;12.01;89.21;102650.56;6298362;28;20053;-71
2022/04/29 10:38:39;;;;;;;9.27;2.47;;;;;;;12.37;88.38;102641.56;6317725;27;20703;-71
2022/04/29 10:41:58;;;;;;;9.90;2.42;;;;;;;12.38;88.34;102645.06;6311244;28;20052;-71
2022/04/29 10:45:00;;;;;;;3.13;1.77;;;;;;;12.33;84.56;102637.28;6292779;28;20055;-71
2022/04/29 10:48:33;;;;;;;4.35;2.30;;;;;;;12.25;82.59;102634.00;6292703;28;20076;-70
2022/04/29 10:51:50;;;;;;;4.50;1.85;;;;;;;12.31;78.19;102640.88;6292187;28;20045;-72
2022/04/29 10:54:56;;;;;;;5.03;1.95;;;;;;;12.35;73.08;102639.88;6291257;28;20048;-70
2022/04/29 10:58:01;;;;;;;3.97;2.00;;;;;;;12.46;77.40;102636.91;6292371;28;20556;-71
2022/04/29 11:01:24;;;;;;;3.50;2.10;;;;;;;12.38;77.85;102624.81;6291665;28;20511;-71
2022/04/29 11:04:45;;;;;;;3.25;1.85;;;;;;;12.46;75.49;102634.28;6292240;28;20648;-71
2022/04/29 11:07:48;;;;;;;5.60;2.33;;;;;;;12.47;77.94;102634.22;6292266;28;20407;-72
2022/04/29 11:10:55;;;;;;;9.23;2.47;;;;;;;12.54;80.06;102627.00;6290534;28;20052;-70
2022/04/29 11:14:00;;;;;;;4.53;2.10;;;;;;;12.54;76.65;102625.22;6282407;28;20045;-70
2022/04/29 11:17:10;;;;;;;5.55;2.05;;;;;;;12.74;78.95;102607.88;6297481;28;20045;-71
2022/04/29 11:20:20;;;;;;;7.07;1.77;;;;;;;12.89;77.60;102610.00;6291888;28;20048;-71
2022/04/29 11:26:50;;;;;;;3.47;2.03;;;;;;;12.89;73.87;102610.00;6291230;28;20049;-71
2022/04/29 11:29:53;;;;;;;2.53;1.80;;;;;;;13.07;74.39;102608.53;6289632;28;20052;-71
2022/04/29 11:32:55;;;;;;;6.00;2.15;;;;;;;13.04;72.30;102608.66;6290523;28;20599;-71
2022/04/29 11:36:05;;;;;;;3.15;2.08;;;;;;;13.03;72.63;102599.00;6284833;28;20049;-72
2022/04/29 11:39:15;;;;;;;3.25;2.08;;;;;;;12.89;68.22;102599.47;6286858;28;20041;-71
2022/04/29 11:42:19;;;;;;;1.90;1.40;;;;;;;12.93;64.25;102607.22;6272928;28;20049;-72
2022/04/29 11:45:22;;;;;;;1.92;1.40;;;;;;;12.85;64.41;102603.09;6264768;28;20564;-71
2022/04/29 11:48:24;;;;;;;3.60;0.93;;;;;;;12.79;63.56;102595.41;6259081;28;20053;-71
2022/04/29 11:51:26;;;;;;;3.08;1.10;;;;;;;12.80;57.31;102590.06;6248417;28;20049;-71
2022/04/29 11:54:28;;;;;;;1.38;1.27;;;;;;;12.68;59.58;102586.09;6248997;28;20080;-71
2022/04/29 11:57:33;;;;;;;2.92;1.27;;;;;;;12.85;62.96;102589.91;6250132;28;20041;-71
2022/04/29 12:00:35;;;;;;;8.43;1.67;;;;;;;12.90;63.28;102586.25;6249157;28;20049;-71
2022/04/29 12:03:36;;;;;;;6.30;1.30;;;;;;;13.15;65.69;102588.88;6249958;28;20042;-71
2022/04/29 12:06:55;;;;;;;2.65;1.40;;;;;;;13.20;62.36;102579.03;6249654;28;20053;-71
2022/04/29 12:09:59;;;;;;;5.47;1.93;;;;;;;13.10;61.88;102575.00;6249558;28;20762;-71
2022/04/29 12:13:03;;;;;;;3.20;1.48;;;;;;;12.98;62.72;102571.91;6249247;28;20342;-71
2022/04/29 12:16:06;;;;;;;4.28;1.55;;;;;;;13.10;62.73;102567.06;6252039;28;20068;-71
2022/04/29 12:19:16;;;;;;;4.18;1.90;;;;;;;13.14;64.97;102566.06;6273990;28;20063;-72
2022/04/29 12:22:27;;;;;;;5.05;1.73;;;;;;;13.23;66.06;102569.31;6269698;28;20132;-71
2022/04/29 12:25:31;;;;;;;2.58;1.88;;;;;;;13.19;66.14;102566.75;6273884;28;20416;-72
2022/04/29 12:28:37;;;;;;;2.97;2.00;;;;;;;13.10;65.75;102563.56;6274269;28;20052;-71
2022/04/29 12:35:07;;;;;;;5.00;1.50;;;;;;;13.15;66.03;102557.22;6235348;28;20041;-71
2022/04/29 12:38:08;;;;;;;3.15;1.27;;;;;;;13.16;66.30;102558.94;6273491;28;20041;-71
2022/04/29 12:41:24;;;;;;;3.80;1.48;;;;;;;13.18;68.44;102557.09;6272707;28;20056;-71
2022/04/29 12:47:49;;;;;;;1.85;1.38;;;;;;;13.04;66.55;102550.59;6270059;28;20041;-71
2022/04/29 12:50:50;;;;;;;1.77;1.15;;;;;;;13.04;65.33;102553.25;6271725;28;20056;-71
2022/04/29 12:53:52;;;;;;;2.15;1.38;;;;;;;13.10;65.66;102560.94;6271454;28;20419;-70
2022/04/29 12:56:53;;;;;;;6.78;1.55;;;;;;;13.26;63.34;102559.50;6273562;28;20045;-71
2022/04/29 13:00:00;;;;;;;2.33;1.85;;;;;;;13.39;63.81;102554.63;6271874;28;20397;-71
2022/04/29 13:03:03;;;;;;;2.13;1.55;;;;;;;13.71;62.14;102546.38;6273102;28;20049;-71
2022/04/29 13:06:04;;;;;;;1.92;1.20;;;;;;;13.84;62.81;102536.22;6273137;28;20057;-71
2022/04/29 13:09:06;;;;;;;5.25;1.52;;;;;;;13.91;64.18;102527.13;6273215;28;20045;-71
2022/04/29 13:12:09;;;;;;;2.42;1.83;;;;;;;14.02;63.57;102532.00;6272264;28;20439;-71
2022/04/29 13:15:12;;;;;;;7.05;1.88;;;;;;;13.89;64.86;102531.59;6272813;28;20061;-71
2022/04/29 13:18:15;;;;;;;3.13;1.45;;;;;;;14.06;64.70;102530.97;6272806;28;20045;-71
2022/04/29 13:21:18;;;;;;;3.33;1.92;;;;;;;13.79;65.28;102524.09;6271871;28;20056;-71
2022/04/29 13:24:19;;;;;;;2.17;1.55;;;;;;;13.60;66.55;102524.81;6269505;28;20051;-71
2022/04/29 13:27:21;;;;;;;2.92;1.83;;;;;;;13.51;67.53;102517.22;6264259;28;20072;-71
2022/04/29 13:30:23;;;;;;;3.63;2.15;;;;;;;13.44;67.02;102515.72;6247506;28;20049;-71
2022/04/29 13:33:25;;;;;;;5.07;1.60;;;;;;;13.27;68.41;102508.44;6257056;28;20056;-71
2022/04/29 13:36:27;;;;;;;4.43;1.95;;;;;;;13.40;68.07;102509.72;6272034;28;20060;-71
2022/04/29 13:39:28;;;;;;;2.55;1.60;;;;;;;13.73;66.09;102501.44;6266993;28;20048;-71
2022/04/29 13:42:30;;;;;;;4.70;2.33;;;;;;;13.79;67.67;102497.69;6261941;28;20516;-70
2022/04/29 13:45:33;;;;;;;4.32;2.15;;;;;;;13.91;66.82;102489.28;6267558;28;20053;-71
2022/04/29 13:48:34;;;;;;;2.53;1.73;;;;;;;13.71;67.14;102497.97;6261699;28;20413;-72
2022/04/29 13:51:35;;;;;;;2.83;2.00;;;;;;;13.61;72.31;102488.69;6246650;28;20057;-71
2022/04/29 13:54:36;;;;;;;2.30;1.60;;;;;;;13.51;70.55;102482.88;6259874;28;20428;-72
2022/04/29 13:57:39;;;;;;;3.55;2.05;;;;;;;13.40;68.54;102485.94;6269207;28;20048;-72
2022/04/29 14:00:44;;;;;;;5.15;2.42;;;;;;;13.23;69.45;102487.47;6246433;28;20056;-71
2022/04/29 14:03:47;;;;;;;2.83;1.83;;;;;;;13.19;72.58;102481.41;6249891;28;20045;-71
2022/04/29 14:06:48;;;;;;;2.85;1.50;;;;;;;13.11;70.92;102472.91;6268334;28;20037;-71
2022/04/29 14:09:50;;;;;;;4.60;2.20;;;;;;;13.13;69.52;102471.09;6250275;28;20425;-71
2022/04/29 14:12:52;;;;;;;8.23;2.60;;;;;;;13.18;70.54;102471.78;6245492;28;20049;-71
2022/04/29 14:15:54;;;;;;;2.10;1.65;;;;;;;13.45;69.18;102469.91;6262000;28;20049;-71
2022/04/29 14:18:56;;;;;;;4.28;2.10;;;;;;;13.96;67.52;102463.53;6266490;28;20057;-71
2022/04/29 14:21:57;;;;;;;5.97;2.10;;;;;;;14.73;66.34;102466.53;6246198;28;20054;-71
2022/04/29 14:24:58;;;;;;;2.85;1.75;;;;;;;14.71;62.15;102463.06;6246771;28;20057;-71
2022/04/29 14:28:00;;;;;;;5.57;2.08;;;;;;;15.77;60.14;102459.16;6246678;28;20053;-71
2022/04/29 14:31:03;;;;;;;2.90;1.77;;;;;;;15.84;57.34;102449.13;6246059;28;20060;-71
2022/04/29 14:34:04;;;;;;;4.63;1.70;;;;;;;15.86;58.90;102449.91;6246603;28;20416;-71
2022/04/29 14:37:06;;;;;;;6.65;2.20;;;;;;;15.91;57.95;102445.25;6246356;28;20541;-71
2022/04/29 14:40:10;;;;;;;3.67;2.38;;;;;;;16.27;56.58;102452.31;6258306;28;20079;-72
2022/04/29 14:43:13;;;;;;;4.55;1.73;;;;;;;17.31;52.63;102441.59;6255638;28;20049;-72
2022/04/29 14:46:17;;;;;;;3.75;2.17;;;;;;;18.71;48.68;102440.63;6246468;28;20523;-72
2022/04/29 14:49:18;;;;;;;7.13;2.10;;;;;;;18.29;50.86;102438.72;6246664;28;20046;-69
2022/04/29 14:52:19;;;;;;;2.38;1.75;;;;;;;17.70;50.28;102436.72;6245690;28;20049;-69
2022/04/29 14:55:21;;;;;;;4.20;1.80;;;;;;;17.12;50.90;102428.44;6246674;28;20049;-69